createdAt,value
2022-11-05T00:04:28.188Z,100.00
2022-11-05T00:09:33.632Z,100.00
2022-11-05T00:14:53.754Z,100.00
2022-11-05T00:19:56.972Z,100.00
2022-11-05T00:25:14.104Z,100.00
2022-11-05T00:30:19.377Z,100.00
2022-11-05T00:35:22.532Z,100.00
2022-11-05T00:40:24.205Z,100.00
2022-11-05T00:45:25.974Z,100.00
2022-11-05T00:50:28.224Z,100.00
2022-11-05T00:55:39.897Z,100.00
2022-11-05T01:00:48.719Z,100.00
2022-11-05T01:05:56.189Z,100.00
2022-11-05T01:10:58.855Z,100.00
2022-11-05T01:16:05.997Z,100.00
2022-11-05T01:21:16.718Z,100.00
2022-11-05T01:26:18.361Z,100.00
2022-11-05T01:31:20.510Z,100.00
2022-11-05T01:36:22.151Z,100.00
2022-11-05T01:41:23.853Z,100.00
2022-11-05T01:46:29.614Z,100.00
2022-11-05T01:51:31.474Z,100.00
2022-11-05T01:56:38.107Z,100.00
2022-11-05T02:01:39.728Z,100.00
2022-11-05T02:06:48.129Z,100.00
2022-11-05T02:11:51.466Z,100.00
2022-11-05T02:17:01.361Z,100.00
2022-11-05T02:22:21.306Z,100.00
2022-11-05T02:27:44.097Z,100.00
2022-11-05T02:33:11.097Z,100.00
2022-11-05T02:38:29.702Z,100.00
2022-11-05T02:43:41.899Z,100.00
2022-11-05T02:49:10.728Z,100.00
2022-11-05T02:54:14.964Z,100.00
2022-11-05T02:59:16.490Z,100.00
2022-11-05T03:04:21.307Z,100.00
2022-11-05T03:09:54.760Z,100.00
2022-11-05T03:15:12.266Z,100.00
2022-11-05T03:20:20.064Z,100.00
2022-11-05T03:25:24.328Z,100.00
2022-11-05T03:30:26.662Z,100.00
2022-11-05T03:35:34.360Z,100.00
2022-11-05T03:40:38.750Z,100.00
2022-11-05T03:46:06.559Z,100.00
2022-11-05T03:51:32.073Z,100.00
2022-11-05T03:56:42.602Z,100.00
2022-11-05T04:01:44.346Z,100.00
2022-11-05T04:07:04.513Z,100.00
2022-11-05T04:12:25.020Z,100.00
2022-11-05T04:17:26.625Z,100.00
2022-11-05T04:22:50.319Z,100.00
2022-11-05T04:27:51.912Z,100.00
2022-11-05T04:33:14.583Z,100.00
2022-11-05T04:38:18.715Z,100.00
2022-11-05T04:43:20.419Z,100.00
2022-11-05T04:48:22.260Z,100.00
2022-11-05T04:53:23.803Z,100.00
2022-11-05T04:58:25.491Z,100.00
2022-11-05T05:03:27.008Z,100.00
2022-11-05T05:08:28.656Z,100.00
2022-11-05T05:13:30.382Z,100.00
2022-11-05T05:18:31.931Z,100.00
2022-11-05T05:23:33.443Z,100.00
2022-11-05T05:28:35.009Z,100.00
2022-11-05T05:33:36.666Z,100.00
2022-11-05T05:38:38.295Z,100.00
2022-11-05T05:43:39.880Z,100.00
2022-11-05T05:48:42.395Z,100.00
2022-11-05T05:53:44.340Z,100.00
2022-11-05T05:58:46.814Z,100.00
2022-11-05T06:03:48.883Z,100.00
2022-11-05T06:08:50.453Z,100.00
2022-11-05T06:13:52.070Z,100.00
2022-11-05T06:18:53.552Z,100.00
2022-11-05T06:23:55.102Z,100.00
2022-11-05T06:28:56.970Z,100.00
2022-11-05T06:33:58.510Z,100.00
2022-11-05T06:39:00.058Z,100.00
2022-11-05T06:44:01.637Z,100.00
2022-11-05T06:49:03.241Z,100.00
2022-11-05T06:54:05.210Z,100.00
2022-11-05T06:59:08.492Z,100.00
2022-11-05T07:04:12.234Z,100.00
2022-11-05T07:09:13.810Z,100.00
2022-11-05T07:14:15.350Z,100.00
2022-11-05T07:19:16.920Z,100.00
2022-11-05T07:24:18.503Z,100.00
2022-11-05T07:29:20.066Z,100.00
2022-11-05T07:34:21.673Z,100.00
2022-11-05T07:39:23.357Z,100.00
2022-11-05T07:44:24.935Z,100.00
2022-11-05T07:49:26.443Z,100.00
2022-11-05T07:54:28.066Z,100.00
2022-11-05T07:59:29.613Z,100.00
2022-11-05T08:04:31.251Z,100.00
2022-11-05T08:09:32.776Z,100.00
2022-11-05T08:14:34.366Z,100.00
2022-11-05T08:19:35.930Z,100.00
2022-11-05T08:24:37.500Z,100.00
2022-11-05T08:29:39.043Z,100.00
2022-11-05T08:34:40.662Z,100.00
2022-11-05T08:39:42.256Z,100.00
2022-11-05T08:44:44.199Z,100.00
2022-11-05T08:49:45.945Z,100.00
2022-11-05T08:54:47.767Z,100.00
2022-11-05T08:59:49.380Z,100.00
2022-11-05T09:04:51.032Z,100.00
2022-11-05T09:09:52.745Z,100.00
2022-11-05T09:14:54.491Z,100.00
2022-11-05T09:19:56.115Z,100.00
2022-11-05T09:24:57.837Z,100.00
2022-11-05T09:29:59.483Z,100.00
2022-11-05T09:35:01.571Z,99.06
2022-11-05T09:40:03.601Z,98.86
2022-11-05T09:45:10.581Z,100.00
2022-11-05T09:50:18.790Z,99.86
2022-11-05T09:55:35.415Z,100.00
2022-11-05T10:00:37.389Z,100.00
2022-11-05T10:05:40.498Z,100.00
2022-11-05T10:10:46.219Z,99.46
2022-11-05T10:15:57.670Z,98.73
2022-11-05T10:20:59.442Z,96.67
2022-11-05T10:26:09.153Z,94.92
2022-11-05T10:31:14.761Z,93.95
2022-11-05T10:36:29.279Z,93.66
2022-11-05T10:41:52.683Z,85.90
2022-11-05T10:47:24.804Z,81.91
2022-11-05T10:52:35.246Z,78.84
2022-11-05T10:57:39.664Z,75.47
2022-11-05T11:02:50.082Z,77.00
2022-11-05T11:07:55.962Z,79.41
2022-11-05T11:12:59.052Z,81.39
2022-11-05T11:18:25.143Z,78.99
2022-11-05T11:23:27.937Z,81.32
2022-11-05T11:28:37.359Z,78.29
2022-11-05T11:33:43.130Z,77.96
2022-11-05T11:38:45.188Z,80.98
2022-11-05T11:43:47.048Z,84.71
2022-11-05T11:48:49.577Z,82.62
2022-11-05T11:53:57.511Z,83.73
2022-11-05T11:59:15.562Z,86.25
2022-11-05T12:04:39.020Z,84.23
2022-11-05T12:10:13.016Z,79.25
2022-11-05T12:15:39.219Z,77.80
2022-11-05T12:20:57.830Z,77.40
2022-11-05T12:26:33.064Z,78.70
2022-11-05T12:31:45.147Z,77.52
2022-11-05T12:37:16.970Z,81.82
2022-11-05T12:42:33.831Z,81.49
2022-11-05T12:47:35.293Z,82.05
2022-11-05T12:52:56.853Z,84.79
2022-11-05T12:58:12.985Z,83.84
2022-11-05T13:03:22.060Z,81.69
2022-11-05T13:08:39.246Z,69.87
2022-11-05T13:13:53.949Z,71.53
2022-11-05T13:19:05.347Z,70.45
2022-11-05T13:24:22.784Z,69.65
2022-11-05T13:29:27.284Z,69.79
2022-11-05T13:34:33.452Z,74.34
2022-11-05T13:39:43.685Z,73.51
2022-11-05T13:45:00.971Z,73.34
2022-11-05T13:50:41.048Z,74.98
2022-11-05T13:56:01.433Z,78.66
2022-11-05T14:01:09.040Z,76.76
2022-11-05T14:06:10.975Z,78.04
2022-11-05T14:11:27.467Z,80.35
2022-11-05T14:16:47.647Z,79.74
2022-11-05T14:21:51.564Z,75.38
2022-11-05T14:27:02.424Z,75.64
2022-11-05T14:32:19.365Z,74.44
2022-11-05T14:37:25.934Z,74.14
2022-11-05T14:42:27.434Z,78.56
2022-11-05T14:47:33.038Z,77.80
2022-11-05T14:52:35.738Z,78.72
2022-11-05T14:57:43.488Z,81.15
2022-11-05T15:02:57.851Z,84.54
2022-11-05T15:08:20.056Z,85.71
2022-11-05T15:13:32.794Z,89.10
2022-11-05T15:18:45.082Z,91.88
2022-11-05T15:23:48.788Z,91.93
2022-11-05T15:28:52.534Z,93.68
2022-11-05T15:34:18.969Z,95.44
2022-11-05T15:39:40.292Z,96.52
2022-11-05T15:44:48.075Z,97.31
2022-11-05T15:50:09.955Z,99.10
2022-11-05T15:55:14.926Z,100.00
2022-11-05T16:00:28.363Z,100.00
2022-11-05T16:05:42.076Z,100.00
2022-11-05T16:10:48.916Z,100.00
2022-11-05T16:15:59.193Z,100.00
2022-11-05T16:21:08.134Z,100.00
2022-11-05T16:32:00.965Z,100.00
2022-11-05T16:37:04.528Z,100.00
2022-11-05T16:42:36.578Z,100.00
2022-11-05T16:47:38.378Z,100.00
2022-11-05T16:52:40.025Z,100.00
2022-11-05T16:57:44.395Z,100.00
2022-11-05T17:02:46.820Z,100.00
2022-11-05T17:07:48.691Z,100.00
2022-11-05T17:12:50.936Z,100.00
2022-11-05T17:17:55.667Z,100.00
2022-11-05T17:22:58.125Z,100.00
2022-11-05T17:27:59.916Z,100.00
2022-11-05T17:33:02.113Z,100.00
2022-11-05T17:38:03.809Z,100.00
2022-11-05T17:43:09.710Z,100.00
2022-11-05T17:48:12.204Z,100.00
2022-11-05T17:53:16.149Z,100.00
2022-11-05T17:58:17.754Z,100.00
2022-11-05T18:03:19.537Z,100.00
2022-11-05T18:08:21.105Z,100.00
2022-11-05T18:13:22.764Z,100.00
2022-11-05T18:18:24.306Z,100.00
2022-11-05T18:23:26.205Z,100.00
2022-11-05T18:28:29.954Z,100.00
2022-11-05T18:33:31.731Z,100.00
2022-11-05T18:38:33.260Z,100.00
2022-11-05T18:43:34.865Z,100.00
2022-11-05T18:48:36.894Z,100.00
2022-11-05T18:53:39.310Z,100.00
2022-11-05T18:58:41.273Z,100.00
2022-11-05T19:03:42.881Z,100.00
2022-11-05T19:08:44.857Z,100.00
2022-11-05T19:13:46.724Z,100.00
2022-11-05T19:18:48.867Z,100.00
2022-11-05T19:23:51.084Z,100.00
2022-11-05T19:28:52.746Z,100.00
2022-11-05T19:33:55.286Z,100.00
2022-11-05T19:38:59.154Z,100.00
2022-11-05T19:44:03.569Z,100.00
2022-11-05T19:49:05.306Z,100.00
2022-11-05T19:54:08.993Z,100.00
2022-11-05T19:59:11.583Z,100.00
2022-11-05T20:04:15.811Z,100.00
2022-11-05T20:09:22.224Z,100.00
2022-11-05T20:14:25.212Z,100.00
2022-11-05T20:19:26.740Z,100.00
2022-11-05T20:24:28.805Z,100.00
2022-11-05T20:29:35.221Z,100.00
2022-11-05T20:34:37.614Z,100.00
2022-11-05T20:39:39.284Z,100.00
2022-11-05T20:44:41.447Z,100.00
2022-11-05T20:49:43.372Z,100.00
2022-11-05T20:54:45.860Z,100.00
2022-11-05T20:59:47.360Z,100.00
2022-11-05T21:04:49.224Z,100.00
2022-11-05T21:09:50.902Z,100.00
2022-11-05T21:14:53.050Z,100.00
2022-11-05T21:19:54.565Z,100.00
2022-11-05T21:24:56.852Z,100.00
2022-11-05T21:29:58.350Z,100.00
2022-11-05T21:34:59.940Z,100.00
2022-11-05T21:40:01.503Z,100.00
2022-11-05T21:45:03.193Z,100.00
2022-11-05T21:50:05.289Z,100.00
2022-11-05T21:55:26.218Z,100.00
2022-11-05T22:00:27.697Z,100.00
2022-11-05T22:05:32.823Z,100.00
2022-11-05T22:10:34.445Z,100.00
2022-11-05T22:15:36.003Z,100.00
2022-11-05T22:20:39.561Z,100.00
2022-11-05T22:25:41.105Z,100.00
2022-11-05T22:30:42.593Z,100.00
2022-11-05T22:35:44.109Z,100.00
2022-11-05T22:40:45.644Z,100.00
2022-11-05T22:45:47.212Z,100.00
2022-11-05T22:50:48.757Z,100.00
2022-11-05T22:55:50.372Z,100.00
2022-11-05T23:00:51.960Z,100.00
2022-11-05T23:06:05.948Z,100.00
2022-11-05T23:11:38.370Z,100.00
2022-11-05T23:17:00.263Z,100.00
2022-11-05T23:22:20.810Z,100.00
2022-11-05T23:27:22.468Z,100.00
2022-11-05T23:32:24.087Z,100.00
2022-11-05T23:37:46.562Z,100.00
2022-11-05T23:43:07.293Z,100.00
2022-11-05T23:48:32.802Z,100.00
2022-11-05T23:53:36.544Z,100.00
2022-11-05T23:58:39.110Z,100.00
